Time;durP1;ratioP1;P1;durP2;ratioP2;P2;SDS_P1;SDS_P2;PMS_P1;PMS_P2;Temp;Humidity;BMP_temperature;BMP_pressure;BME280_temperature;BME280_humidity;BME280_pressure;Samples;Min_cycle;Max_cycle;Signal;HPM_P1;HPM_P2
2023/06/01 00:01:12;;;;;;;9.50;6.82;;;;;;;16.77;67.25;95133.34;5064885;28;20407;-72
2023/06/01 00:03:38;;;;;;;8.93;6.25;;;;;;;16.76;67.37;95129.81;5064429;28;20476;-72
2023/06/01 00:06:03;;;;;;;8.20;7.05;;;;;;;16.76;67.17;95129.06;5064902;28;20055;-74
2023/06/01 00:08:29;;;;;;;10.85;6.90;;;;;;;16.60;67.58;95124.63;5064559;28;20025;-72
2023/06/01 00:10:54;;;;;;;8.70;6.68;;;;;;;16.55;68.29;95128.06;5064574;28;20017;-72
2023/06/01 00:13:20;;;;;;;9.30;6.50;;;;;;;16.50;67.90;95118.38;5067030;28;20103;-71
2023/06/01 00:15:45;;;;;;;10.32;6.78;;;;;;;16.41;68.36;95119.19;5064127;28;20016;-72
2023/06/01 00:18:12;;;;;;;11.50;7.53;;;;;;;16.41;68.67;95115.66;5064842;28;20060;-72
2023/06/01 00:20:38;;;;;;;11.52;7.68;;;;;;;16.41;68.71;95118.44;5063023;28;20075;-73
2023/06/01 00:23:04;;;;;;;12.10;8.02;;;;;;;16.42;68.83;95123.50;5062939;28;20036;-72
2023/06/01 00:25:29;;;;;;;14.00;8.32;;;;;;;16.39;69.04;95121.66;5062935;28;20109;-72
2023/06/01 00:27:56;;;;;;;12.90;9.15;;;;;;;16.39;69.11;95116.09;5062974;28;20056;-72
2023/06/01 00:30:21;;;;;;;14.20;9.13;;;;;;;16.35;69.51;95121.09;5065384;28;20463;-72
2023/06/01 00:32:46;;;;;;;11.25;8.65;;;;;;;16.33;69.61;95120.00;5068191;28;20110;-73
2023/06/01 00:35:12;;;;;;;13.48;9.43;;;;;;;16.36;69.57;95125.38;5067792;28;20025;-73
2023/06/01 00:37:37;;;;;;;18.17;9.75;;;;;;;16.35;69.63;95118.31;5067764;28;20499;-72
2023/06/01 00:40:03;;;;;;;13.93;9.82;;;;;;;16.38;69.73;95130.47;5049861;28;20044;-72
2023/06/01 00:42:29;;;;;;;22.38;10.38;;;;;;;16.35;69.98;95120.31;5067824;28;20071;-72
2023/06/01 00:44:54;;;;;;;13.88;9.82;;;;;;;16.34;70.05;95125.06;5066617;28;20024;-72
2023/06/01 00:47:20;;;;;;;13.88;9.60;;;;;;;16.32;69.92;95122.00;5066093;28;20274;-72
2023/06/01 00:49:46;;;;;;;27.23;10.65;;;;;;;16.34;69.88;95124.31;5066769;28;20025;-72
2023/06/01 00:52:12;;;;;;;19.05;10.60;;;;;;;16.35;70.20;95120.31;5065886;28;20048;-72
2023/06/01 00:54:37;;;;;;;14.48;9.88;;;;;;;16.34;69.98;95119.53;5066461;28;20035;-72
2023/06/01 00:57:03;;;;;;;14.57;10.27;;;;;;;16.34;70.19;95119.53;5066186;28;20064;-72
2023/06/01 00:59:28;;;;;;;15.73;9.73;;;;;;;16.27;70.43;95122.66;5067350;28;20017;-72
2023/06/01 01:01:53;;;;;;;18.55;11.82;;;;;;;16.25;70.38;95119.59;5067831;28;20033;-72
2023/06/01 01:04:25;;;;;;;18.13;9.95;;;;;;;16.28;70.51;95126.94;5067301;28;20108;-72
2023/06/01 01:07:20;;;;;;;18.55;11.60;;;;;;;16.29;70.13;95122.97;5067711;28;20028;-71
2023/06/01 01:09:59;;;;;;;23.13;10.98;;;;;;;16.29;70.16;95122.19;5069979;28;20032;-72
2023/06/01 01:13:01;;;;;;;16.70;11.80;;;;;;;16.28;70.41;95126.19;5066078;28;20119;-73
2023/06/01 01:15:35;;;;;;;18.00;12.50;;;;;;;16.24;70.12;95126.38;5066163;28;20032;-72
2023/06/01 01:18:05;;;;;;;21.33;14.20;;;;;;;16.18;70.05;95139.34;5067382;28;20029;-72
2023/06/01 01:20:44;;;;;;;20.08;13.85;;;;;;;16.15;69.88;95134.72;5068331;28;20099;-72
2023/06/01 01:23:48;;;;;;;23.40;15.00;;;;;;;16.16;69.61;95136.25;5067268;28;20386;-72
2023/06/01 01:26:43;;;;;;;23.75;14.68;;;;;;;16.17;69.59;95135.81;5065408;28;20112;-72
2023/06/01 01:29:14;;;;;;;21.70;14.82;;;;;;;16.16;69.83;95139.03;5065891;28;20044;-72
2023/06/01 01:31:40;;;;;;;23.88;14.18;;;;;;;16.09;69.90;95129.03;5067252;28;20038;-72
2023/06/01 01:34:06;;;;;;;26.15;14.73;;;;;;;16.15;69.61;95127.16;5066802;28;20055;-72
2023/06/01 01:36:31;;;;;;;20.45;14.77;;;;;;;16.17;69.44;95129.47;5065791;28;20436;-72
2023/06/01 01:38:57;;;;;;;22.60;14.77;;;;;;;16.20;69.47;95129.31;5065315;28;20031;-72
2023/06/01 01:41:22;;;;;;;20.67;14.88;;;;;;;16.24;69.04;95129.16;5065527;28;20020;-72
2023/06/01 01:43:48;;;;;;;23.65;15.10;;;;;;;16.27;69.04;95124.66;5066644;28;20470;-72
2023/06/01 01:46:32;;;;;;;23.40;16.08;;;;;;;16.26;69.68;95129.44;5065555;28;20035;-72
2023/06/01 01:49:26;;;;;;;23.60;15.43;;;;;;;16.28;69.42;95135.28;5048696;28;20149;-72
2023/06/01 01:52:17;;;;;;;21.02;14.88;;;;;;;16.26;69.38;95134.22;5066427;28;20451;-72
2023/06/01 01:54:45;;;;;;;19.90;12.90;;;;;;;15.98;70.19;95137.09;5068095;28;20032;-71
2023/06/01 01:57:15;;;;;;;17.23;12.43;;;;;;;15.95;70.26;95138.03;5065633;28;20138;-71
2023/06/01 01:59:42;;;;;;;25.58;12.73;;;;;;;15.94;70.48;95130.94;5065180;28;20407;-72
2023/06/01 02:02:07;;;;;;;19.02;12.52;;;;;;;15.81;71.07;95135.91;5066458;28;20029;-72
2023/06/01 02:04:33;;;;;;;20.13;13.45;;;;;;;15.83;70.99;95134.22;5065806;28;20418;-73
2023/06/01 02:06:58;;;;;;;17.02;11.40;;;;;;;15.85;71.10;95133.75;5065235;28;20078;-73
2023/06/01 02:09:24;;;;;;;18.92;11.98;;;;;;;15.90;70.88;95128.34;5065633;28;20633;-72
2023/06/01 02:11:49;;;;;;;17.58;12.23;;;;;;;15.92;70.84;95134.19;5048419;28;20028;-72
2023/06/01 02:14:15;;;;;;;20.52;13.02;;;;;;;15.98;70.68;95136.31;5065719;28;20048;-72
2023/06/01 02:16:40;;;;;;;19.77;13.25;;;;;;;15.99;70.56;95132.31;5048264;28;20039;-73
2023/06/01 02:19:06;;;;;;;23.10;15.20;;;;;;;15.99;70.42;95137.84;5047847;28;20568;-72
2023/06/01 02:21:32;;;;;;;24.38;14.77;;;;;;;16.01;70.39;95138.94;5064185;28;20423;-72
2023/06/01 02:24:05;;;;;;;24.17;15.63;;;;;;;16.03;69.97;95150.31;5066137;28;20112;-72
2023/06/01 02:26:30;;;;;;;;;;;;;;;16.04;70.10;95140.78;5066028;28;20028;-71
2023/06/01 02:28:56;;;;;;;25.60;16.77;;;;;;;16.03;70.19;95147.56;5048014;28;19920;-73
2023/06/01 02:31:22;;;;;;;27.15;17.10;;;;;;;16.05;70.39;95144.31;5065163;28;20488;-72
2023/06/01 02:33:47;;;;;;;25.98;16.77;;;;;;;16.06;70.43;95141.09;5066295;28;20029;-73
2023/06/01 02:36:16;;;;;;;24.65;15.77;;;;;;;16.09;70.26;95134.59;5063798;28;20025;-73
2023/06/01 02:38:42;;;;;;;23.75;15.80;;;;;;;16.08;70.05;95146.94;5064212;28;20071;-73
2023/06/01 02:41:07;;;;;;;24.35;15.32;;;;;;;16.08;70.33;95141.38;5064511;28;20052;-72
2023/06/01 02:43:35;;;;;;;21.20;14.07;;;;;;;16.12;70.34;95144.75;5065037;28;20074;-73
2023/06/01 02:46:01;;;;;;;23.52;15.15;;;;;;;16.13;70.40;95142.75;5065737;28;20024;-72
2023/06/01 02:48:27;;;;;;;26.67;17.20;;;;;;;16.08;70.26;95149.69;5065083;28;20025;-73
2023/06/01 02:50:53;;;;;;;29.05;17.30;;;;;;;16.11;70.30;95150.75;5065849;28;20029;-73
2023/06/01 02:53:18;;;;;;;26.50;17.83;;;;;;;16.13;69.92;95149.06;5062940;28;20033;-72
2023/06/01 02:55:44;;;;;;;33.08;18.35;;;;;;;16.14;69.89;95152.59;5065571;28;20032;-73
2023/06/01 02:58:16;;;;;;;27.85;16.95;;;;;;;16.14;70.01;95150.59;5064662;28;20043;-73
2023/06/01 03:00:42;;;;;;;26.05;16.17;;;;;;;16.16;70.07;95145.34;5065883;28;20048;-73
2023/06/01 03:03:07;;;;;;;22.65;14.95;;;;;;;16.17;70.05;95144.13;5065543;28;20104;-73
2023/06/01 03:05:33;;;;;;;22.77;13.32;;;;;;;16.19;69.94;95149.19;5064704;28;20116;-71
2023/06/01 03:07:58;;;;;;;20.65;14.07;;;;;;;16.19;69.72;95144.41;5047308;28;20457;-72
2023/06/01 03:10:24;;;;;;;19.83;14.20;;;;;;;16.17;69.81;95149.69;5064657;28;20021;-72
2023/06/01 03:12:49;;;;;;;24.13;14.75;;;;;;;16.19;69.86;95154.75;5064111;28;20458;-72
2023/06/01 03:15:15;;;;;;;22.67;14.77;;;;;;;16.16;70.01;95148.13;5064770;28;20464;-73
2023/06/01 03:17:40;;;;;;;21.80;14.50;;;;;;;16.18;69.96;95153.97;5064606;28;20024;-73
2023/06/01 03:20:14;;;;;;;23.52;15.38;;;;;;;16.19;69.77;95158.28;5063397;28;20889;-73
2023/06/01 03:22:40;;;;;;;;;;;;;;;16.19;69.86;95155.50;5063209;28;20032;-73
2023/06/01 03:25:07;;;;;;;22.95;15.77;;;;;;;16.17;69.84;95162.75;5064984;28;19913;-73
2023/06/01 03:27:32;;;;;;;22.60;15.30;;;;;;;16.13;69.93;95153.84;5062565;28;20799;-73
2023/06/01 03:29:58;;;;;;;22.45;15.20;;;;;;;16.13;70.18;95160.16;5065725;28;20021;-72
2023/06/01 03:32:23;;;;;;;21.13;14.43;;;;;;;16.17;70.14;95146.91;5062721;28;20025;-72
2023/06/01 03:34:49;;;;;;;21.90;15.57;;;;;;;16.19;69.84;95160.28;5065379;28;20086;-74
2023/06/01 03:37:15;;;;;;;22.98;15.02;;;;;;;16.19;69.78;95158.28;5065308;28;20025;-73
2023/06/01 03:39:47;;;;;;;20.23;13.70;;;;;;;16.13;69.24;95157.38;5080500;28;20031;-74
2023/06/01 03:42:13;;;;;;;19.55;14.13;;;;;;;15.97;69.06;95165.28;5066641;28;20127;-73
2023/06/01 03:44:41;;;;;;;17.48;12.77;;;;;;;15.94;69.54;95153.13;5064351;28;20032;-72
2023/06/01 03:47:07;;;;;;;17.48;13.40;;;;;;;15.89;69.46;95165.63;5065237;28;20021;-73
2023/06/01 03:49:32;;;;;;;16.05;12.07;;;;;;;15.90;69.66;95156.06;5064247;28;20016;-73
2023/06/01 03:51:58;;;;;;;17.83;12.30;;;;;;;15.97;69.81;95162.53;5080406;28;20021;-73
2023/06/01 03:54:23;;;;;;;17.38;13.23;;;;;;;16.02;69.60;95164.66;5066825;28;20495;-72
2023/06/01 03:56:49;;;;;;;16.92;13.25;;;;;;;16.04;69.52;95160.19;5063933;28;20036;-73
2023/06/01 03:59:14;;;;;;;18.42;13.55;;;;;;;16.08;69.25;95162.78;5064964;28;20046;-73
2023/06/01 04:01:42;;;;;;;16.30;12.25;;;;;;;16.11;69.18;95168.16;5062647;28;20035;-73
2023/06/01 04:04:08;;;;;;;19.25;13.52;;;;;;;16.15;68.70;95159.69;5063708;28;20095;-73
2023/06/01 04:06:35;;;;;;;16.35;13.00;;;;;;;16.19;68.67;95165.84;5067570;28;20116;-71
2023/06/01 04:09:09;;;;;;;17.70;13.35;;;;;;;16.20;68.62;95162.59;5068866;28;20028;-73
2023/06/01 04:11:34;;;;;;;17.13;13.43;;;;;;;16.26;68.50;95167.50;5083685;28;20484;-73
2023/06/01 04:14:00;;;;;;;18.85;13.52;;;;;;;16.27;68.65;95175.34;5066806;28;20099;-73
2023/06/01 04:16:25;;;;;;;19.80;13.88;;;;;;;16.19;68.54;95174.94;5070458;28;20166;-72
2023/06/01 04:18:51;;;;;;;21.60;14.27;;;;;;;16.08;68.70;95176.66;5068473;28;20188;-73
2023/06/01 04:21:17;;;;;;;19.65;14.60;;;;;;;16.07;68.69;95178.66;5067291;28;20028;-72
2023/06/01 04:23:42;;;;;;;19.23;14.27;;;;;;;16.09;68.67;95172.66;5067503;28;20048;-72
2023/06/01 04:26:08;;;;;;;19.35;14.07;;;;;;;16.11;68.34;95182.03;5068494;28;20522;-72
2023/06/01 04:28:43;;;;;;;20.77;14.40;;;;;;;16.12;68.10;95177.28;5066164;28;20076;-72
2023/06/01 04:31:09;;;;;;;20.67;14.60;;;;;;;16.14;67.93;95172.03;5066732;28;20020;-72
2023/06/01 04:33:36;;;;;;;19.75;14.27;;;;;;;16.15;67.98;95174.31;5069050;28;20013;-72
2023/06/01 04:36:02;;;;;;;19.73;14.70;;;;;;;16.13;68.07;95181.59;5066324;28;20024;-71
2023/06/01 04:38:28;;;;;;;23.05;15.43;;;;;;;16.11;67.86;95179.25;5068099;28;20133;-72
2023/06/01 04:40:54;;;;;;;19.60;13.95;;;;;;;16.13;67.81;95184.34;5082768;28;20418;-72
2023/06/01 04:43:19;;;;;;;18.75;14.82;;;;;;;16.12;67.79;95183.59;5068038;28;20539;-72
2023/06/01 04:45:45;;;;;;;20.17;14.93;;;;;;;16.16;67.63;95191.72;5065717;28;20029;-72
2023/06/01 04:48:11;;;;;;;21.13;14.30;;;;;;;16.19;67.70;95191.56;5069825;28;20171;-72
2023/06/01 04:50:37;;;;;;;19.48;14.45;;;;;;;16.21;67.76;95196.63;5066712;28;20108;-72
2023/06/01 04:53:03;;;;;;;22.17;15.18;;;;;;;16.20;67.67;95209.75;5065618;28;20033;-72
2023/06/01 04:55:28;;;;;;;23.88;15.38;;;;;;;16.24;67.21;95197.72;5066519;28;20035;-72
2023/06/01 04:57:54;;;;;;;22.77;15.63;;;;;;;16.27;67.08;95194.00;5065712;28;20485;-72
2023/06/01 05:00:20;;;;;;;19.88;14.82;;;;;;;16.26;67.21;95186.91;5066815;28;20036;-72
2023/06/01 05:02:47;;;;;;;19.13;15.13;;;;;;;16.31;67.22;95187.06;5066784;28;20020;-72
2023/06/01 05:05:14;;;;;;;22.30;15.60;;;;;;;16.31;67.36;95178.72;5065933;28;20062;-72
2023/06/01 05:07:41;;;;;;;22.40;16.48;;;;;;;16.42;67.24;95197.66;5065052;28;20020;-72
2023/06/01 05:10:10;;;;;;;25.80;16.77;;;;;;;16.46;67.27;95187.94;5066087;28;20032;-73
2023/06/01 05:12:36;;;;;;;23.52;16.05;;;;;;;16.58;67.42;95194.50;5067644;28;20025;-73
2023/06/01 05:15:04;;;;;;;24.77;17.00;;;;;;;16.66;67.03;95198.47;5065360;28;20028;-73
2023/06/01 05:17:29;;;;;;;27.40;17.15;;;;;;;16.72;67.14;95196.59;5067261;28;20040;-72
2023/06/01 05:19:56;;;;;;;29.88;17.92;;;;;;;16.78;67.12;95199.50;5066707;28;20032;-73
2023/06/01 05:22:22;;;;;;;30.20;18.15;;;;;;;16.86;66.46;95192.38;5067591;28;20024;-73
2023/06/01 05:24:48;;;;;;;29.88;18.13;;;;;;;16.94;66.35;95192.78;5066472;28;20112;-73
2023/06/01 05:27:13;;;;;;;34.25;17.88;;;;;;;17.05;66.35;95190.25;5065739;28;20468;-72
2023/06/01 05:29:38;;;;;;;30.80;18.15;;;;;;;17.09;66.11;95193.63;5082836;28;20078;-73
2023/06/01 05:32:06;;;;;;;27.25;17.45;;;;;;;17.19;65.81;95191.53;5064931;28;20028;-72
2023/06/01 05:34:31;;;;;;;26.17;17.23;;;;;;;17.28;65.48;95190.72;5067418;28;20024;-73
2023/06/01 05:36:57;;;;;;;30.02;19.08;;;;;;;17.39;65.41;95199.28;5066543;28;20097;-73
2023/06/01 05:39:27;;;;;;;31.92;18.77;;;;;;;17.46;64.73;95193.34;5068207;28;20032;-73
2023/06/01 05:41:53;;;;;;;31.52;19.08;;;;;;;17.52;64.78;95191.44;5066436;28;20074;-73
2023/06/01 05:44:18;;;;;;;31.45;18.33;;;;;;;17.49;64.76;95189.59;5068954;28;20192;-72
2023/06/01 05:46:44;;;;;;;29.98;19.35;;;;;;;17.53;64.63;95192.97;5065416;28;20538;-72
2023/06/01 05:49:09;;;;;;;30.70;19.65;;;;;;;17.57;64.27;95190.78;5066535;28;20503;-72
2023/06/01 05:51:37;;;;;;;25.85;18.38;;;;;;;17.62;64.03;95192.13;5067158;28;20466;-72
2023/06/01 05:54:04;;;;;;;28.85;19.80;;;;;;;17.68;63.96;95184.66;5065879;28;20090;-72
2023/06/01 05:56:30;;;;;;;26.92;18.58;;;;;;;17.76;63.59;95191.41;5066957;28;20028;-73
2023/06/01 05:58:55;;;;;;;27.63;19.65;;;;;;;17.87;63.62;95199.19;5065998;28;20078;-73
2023/06/01 06:01:22;;;;;;;26.90;18.50;;;;;;;17.87;63.69;95194.38;5067218;28;20116;-73
2023/06/01 06:03:47;;;;;;;28.08;19.00;;;;;;;17.94;63.73;95205.13;5064980;28;20041;-73
2023/06/01 06:06:13;;;;;;;30.08;20.67;;;;;;;18.01;63.20;95201.22;5064993;28;20048;-73
2023/06/01 06:08:38;;;;;;;27.48;19.85;;;;;;;18.05;63.30;95199.75;5066727;28;20124;-73
2023/06/01 06:11:03;;;;;;;32.13;19.42;;;;;;;18.13;63.32;95204.94;5065794;28;20120;-73
2023/06/01 06:13:29;;;;;;;29.85;20.33;;;;;;;18.17;63.03;95194.38;5066629;28;20040;-73
2023/06/01 06:15:55;;;;;;;33.33;20.23;;;;;;;18.24;63.25;95194.00;5064726;28;20035;-73
2023/06/01 06:18:21;;;;;;;31.35;20.80;;;;;;;18.30;62.30;95197.66;5066544;28;20036;-73
2023/06/01 06:20:46;;;;;;;32.22;21.52;;;;;;;18.36;61.97;95203.31;5064487;28;20024;-73
2023/06/01 06:23:12;;;;;;;27.40;20.48;;;;;;;18.37;61.92;95197.25;5081738;28;20162;-73
2023/06/01 06:25:39;;;;;;;34.63;21.50;;;;;;;18.40;62.21;95206.63;5066096;28;20050;-72
2023/06/01 06:28:05;;;;;;;34.50;21.80;;;;;;;18.42;62.36;95199.34;5063754;28;20128;-73
2023/06/01 06:30:30;;;;;;;27.83;19.70;;;;;;;18.49;61.75;95200.97;5065045;28;20463;-73
2023/06/01 06:32:56;;;;;;;29.35;19.98;;;;;;;18.53;61.29;95193.19;5065549;28;20032;-73
2023/06/01 06:35:21;;;;;;;28.58;19.65;;;;;;;18.48;61.39;95200.22;5065886;28;20021;-73
2023/06/01 06:37:47;;;;;;;27.55;19.83;;;;;;;18.50;61.55;95199.72;5067978;28;20043;-73
2023/06/01 06:40:12;;;;;;;33.75;20.77;;;;;;;18.58;61.08;95200.88;5065740;28;20025;-73
2023/06/01 06:42:38;;;;;;;29.10;20.17;;;;;;;18.65;61.05;95200.47;5064052;28;20029;-73
2023/06/01 06:45:04;;;;;;;30.48;21.20;;;;;;;18.65;61.46;95197.69;5064985;28;20411;-73
2023/06/01 06:47:30;;;;;;;31.17;20.33;;;;;;;18.74;61.24;95203.16;5065891;28;20035;-73
2023/06/01 06:49:56;;;;;;;34.00;20.17;;;;;;;18.77;61.12;95199.41;5080967;28;20115;-73
2023/06/01 06:52:22;;;;;;;31.63;20.23;;;;;;;18.78;61.14;95191.81;5065916;28;20485;-73
2023/06/01 06:54:47;;;;;;;26.95;19.48;;;;;;;18.82;61.20;95195.19;5064975;28;20103;-73
2023/06/01 06:57:13;;;;;;;29.30;19.90;;;;;;;18.82;61.27;95195.94;5064118;28;20475;-73
2023/06/01 06:59:38;;;;;;;26.02;18.35;;;;;;;18.87;61.49;95193.69;5063848;28;20063;-73
2023/06/01 07:02:04;;;;;;;26.20;18.42;;;;;;;18.90;60.93;95196.28;5065911;28;20016;-73
2023/06/01 07:04:30;;;;;;;30.15;19.35;;;;;;;18.97;61.03;95200.69;5065207;28;20028;-73
2023/06/01 07:06:55;;;;;;;25.55;18.70;;;;;;;19.08;61.14;95198.81;5065100;28;20024;-73
2023/06/01 07:09:21;;;;;;;26.92;19.33;;;;;;;19.22;61.39;95193.69;5065467;28;20028;-73
2023/06/01 07:11:47;;;;;;;29.65;20.65;;;;;;;19.24;61.39;95191.94;5064414;28;20041;-73
2023/06/01 07:14:13;;;;;;;30.98;19.95;;;;;;;19.30;61.48;95189.97;5065513;28;20078;-72
2023/06/01 07:16:39;;;;;;;25.92;19.65;;;;;;;19.46;60.75;95185.88;5063304;28;20150;-73
2023/06/01 07:19:04;;;;;;;26.77;19.02;;;;;;;19.68;60.60;95198.56;5064308;28;20037;-73
2023/06/01 07:21:30;;;;;;;27.70;18.95;;;;;;;19.76;59.50;95194.06;5064432;28;20035;-72
2023/06/01 07:23:55;;;;;;;28.90;20.60;;;;;;;19.74;59.88;95193.81;5065224;28;20017;-73
2023/06/01 07:26:25;;;;;;;30.23;20.58;;;;;;;19.79;59.16;95193.09;5064863;28;20024;-73
2023/06/01 07:28:52;;;;;;;30.35;21.30;;;;;;;19.76;59.45;95188.50;5063418;28;20028;-72
2023/06/01 07:31:18;;;;;;;31.35;20.95;;;;;;;19.79;59.53;95196.66;5065004;28;20399;-73
2023/06/01 07:33:44;;;;;;;31.40;20.77;;;;;;;19.84;59.16;95190.38;5065434;28;20100;-73
2023/06/01 07:36:09;;;;;;;28.85;20.40;;;;;;;19.80;59.65;95184.22;5065193;28;20033;-73
2023/06/01 07:38:35;;;;;;;26.42;18.92;;;;;;;19.76;59.78;95180.88;5064031;28;20035;-72
2023/06/01 07:41:00;;;;;;;26.92;18.50;;;;;;;19.86;59.47;95182.25;5065017;28;20492;-73
2023/06/01 07:43:26;;;;;;;27.67;18.92;;;;;;;19.94;59.31;95179.78;5063334;28;20024;-72
2023/06/01 07:45:51;;;;;;;26.42;18.15;;;;;;;20.07;58.95;95176.59;5064581;28;20411;-72
2023/06/01 07:48:16;;;;;;;27.73;18.98;;;;;;;20.08;59.00;95175.38;5064982;28;20052;-75
2023/06/01 07:50:42;;;;;;;24.13;18.10;;;;;;;20.19;58.75;95174.72;5064907;28;20033;-73
2023/06/01 07:53:08;;;;;;;29.25;18.80;;;;;;;20.23;58.42;95167.63;5065031;28;20028;-72
2023/06/01 07:55:34;;;;;;;25.42;18.80;;;;;;;20.30;58.58;95169.19;5062906;28;20024;-73
2023/06/01 07:57:59;;;;;;;28.63;19.48;;;;;;;20.42;58.55;95160.44;5063740;28;20111;-72
2023/06/01 08:00:26;;;;;;;27.08;18.15;;;;;;;20.59;58.13;95168.19;5063898;28;20112;-73
2023/06/01 08:02:52;;;;;;;26.85;18.05;;;;;;;20.74;57.57;95168.03;5063432;28;20055;-73
2023/06/01 08:05:18;;;;;;;27.65;19.55;;;;;;;20.79;57.54;95162.47;5063125;28;20044;-73
2023/06/01 08:07:45;;;;;;;28.67;18.00;;;;;;;20.83;57.53;95159.44;5064400;28;20033;-72
2023/06/01 08:10:12;;;;;;;24.25;17.58;;;;;;;20.95;57.30;95161.81;5064862;28;20517;-72
2023/06/01 08:12:37;;;;;;;23.63;17.30;;;;;;;21.11;56.80;95157.56;5064415;28;20021;-72
2023/06/01 08:15:03;;;;;;;25.20;18.48;;;;;;;21.14;56.78;95162.16;5063490;28;20051;-72
2023/06/01 08:17:29;;;;;;;27.17;17.02;;;;;;;21.15;56.46;95155.28;5062478;28;20032;-72
2023/06/01 08:19:56;;;;;;;25.40;17.63;;;;;;;21.33;56.17;95165.28;5064866;28;20676;-73
2023/06/01 08:22:23;;;;;;;25.55;16.80;;;;;;;21.47;55.95;95152.41;5063014;28;20021;-73
2023/06/01 08:24:51;;;;;;;21.40;17.10;;;;;;;21.55;55.15;95149.88;5062843;28;20414;-73
2023/06/01 08:27:21;;;;;;;20.13;15.20;;;;;;;21.68;55.29;95145.34;5064832;28;20032;-73
2023/06/01 08:29:47;;;;;;;20.33;15.68;;;;;;;21.90;54.68;95147.41;5062855;28;20609;-73
2023/06/01 08:32:13;;;;;;;19.25;14.82;;;;;;;22.07;53.61;95147.41;5063404;28;20036;-73
2023/06/01 08:34:38;;;;;;;20.85;15.55;;;;;;;22.04;52.76;95139.28;5063845;28;20093;-73
2023/06/01 08:37:04;;;;;;;18.00;14.45;;;;;;;22.22;52.41;95133.22;5064972;28;20084;-72
2023/06/01 08:39:30;;;;;;;19.10;15.57;;;;;;;22.39;51.70;95136.78;5062656;28;20025;-74
2023/06/01 08:42:18;;;;;;;18.90;14.93;;;;;;;22.61;51.79;95133.19;5064294;28;20475;-73
2023/06/01 08:44:44;;;;;;;17.83;14.05;;;;;;;22.89;51.77;95132.41;5058512;28;20040;-73
2023/06/01 08:47:09;;;;;;;18.42;14.27;;;;;;;23.07;50.88;95137.44;5062408;28;20035;-73
2023/06/01 08:49:36;;;;;;;18.63;13.18;;;;;;;23.17;51.22;95127.47;5062996;28;20033;-74
2023/06/01 08:52:08;;;;;;;20.20;14.65;;;;;;;23.22;50.75;95125.91;5064750;28;20017;-74
2023/06/01 08:54:35;;;;;;;22.88;15.38;;;;;;;23.19;50.76;95121.34;5067299;28;20125;-73
2023/06/01 08:57:02;;;;;;;20.70;15.88;;;;;;;23.42;50.45;95116.41;5067234;28;20036;-72
2023/06/01 08:59:29;;;;;;;18.63;13.35;;;;;;;23.60;49.97;95121.41;5066271;28;20024;-73
2023/06/01 09:01:54;;;;;;;19.15;13.25;;;;;;;23.77;49.49;95118.53;5068111;28;20036;-73
2023/06/01 09:04:20;;;;;;;21.35;13.77;;;;;;;23.87;49.20;95116.94;5065848;28;20029;-74
2023/06/01 09:06:45;;;;;;;17.02;13.18;;;;;;;24.02;48.86;95111.69;5066475;28;20032;-74
2023/06/01 09:09:12;;;;;;;18.27;13.18;;;;;;;24.27;48.20;95109.72;5067186;28;20558;-73
2023/06/01 09:11:38;;;;;;;16.83;14.10;;;;;;;24.43;46.79;95110.91;5067613;28;20429;-73
2023/06/01 09:14:21;;;;;;;18.33;13.18;;;;;;;24.51;47.39;95111.84;5066162;28;20052;-74
2023/06/01 09:16:47;;;;;;;15.65;11.45;;;;;;;24.50;46.56;95107.50;5065672;28;20032;-74
2023/06/01 09:19:13;;;;;;;15.52;10.48;;;;;;;24.63;46.02;95106.88;5067707;28;20017;-74
2023/06/01 09:21:39;;;;;;;14.20;11.38;;;;;;;24.76;45.67;95104.19;5066926;28;20487;-74
2023/06/01 09:24:22;;;;;;;13.45;11.48;;;;;;;24.98;45.48;95106.00;5067770;28;20035;-73
2023/06/01 09:26:48;;;;;;;16.00;11.33;;;;;;;25.02;44.23;95106.47;5082238;28;20024;-74
2023/06/01 09:29:14;;;;;;;13.55;9.98;;;;;;;25.27;44.27;95101.59;5065977;28;20602;-73
2023/06/01 09:31:40;;;;;;;12.02;8.43;;;;;;;25.41;43.65;95099.63;5065243;28;20120;-72
2023/06/01 09:34:11;;;;;;;12.13;8.73;;;;;;;25.40;42.34;95093.25;5065552;28;20024;-74
2023/06/01 09:36:36;;;;;;;12.27;7.70;;;;;;;25.59;42.09;95093.25;5065964;28;20027;-74
2023/06/01 09:39:10;;;;;;;10.57;7.10;;;;;;;25.65;40.04;95091.13;5065167;28;20029;-74
2023/06/01 09:41:54;;;;;;;9.57;6.80;;;;;;;25.93;40.63;95090.72;5065914;28;20024;-74
2023/06/01 09:44:26;;;;;;;10.65;6.90;;;;;;;26.14;40.58;95081.69;5066555;28;20105;-73
2023/06/01 09:47:02;;;;;;;10.43;7.40;;;;;;;26.33;39.67;95073.19;5065035;28;20033;-72
2023/06/01 09:49:44;;;;;;;12.00;7.70;;;;;;;26.54;39.81;95073.38;5065661;28;20286;-73
2023/06/01 09:52:14;;;;;;;12.10;7.30;;;;;;;26.78;39.53;95069.59;5065009;28;20063;-72
2023/06/01 09:54:49;;;;;;;8.77;6.30;;;;;;;27.04;38.68;95066.78;5065533;28;20029;-73
2023/06/01 09:57:23;;;;;;;10.50;7.00;;;;;;;27.31;38.49;95064.72;5064714;28;20025;-73
2023/06/01 09:59:49;;;;;;;8.98;6.60;;;;;;;27.52;37.78;95054.22;5065173;28;20074;-73
2023/06/01 10:02:15;;;;;;;7.63;6.70;;;;;;;27.69;36.94;95048.25;5064673;28;20028;-73
2023/06/01 10:04:44;;;;;;;9.20;5.68;;;;;;;27.93;36.89;95052.06;5065731;28;20120;-74
2023/06/01 10:07:11;;;;;;;6.97;5.60;;;;;;;28.11;36.51;95048.31;5065197;28;20043;-72
2023/06/01 10:09:38;;;;;;;10.05;5.90;;;;;;;28.18;35.44;95038.38;5064485;28;20089;-72
2023/06/01 10:12:05;;;;;;;8.90;5.55;;;;;;;28.24;36.48;95036.16;5066285;28;20089;-72
2023/06/01 10:14:31;;;;;;;7.47;5.90;;;;;;;28.43;35.25;95045.19;5064666;28;20032;-74
2023/06/01 10:16:56;;;;;;;8.95;6.20;;;;;;;28.57;35.49;95034.56;5065874;28;20028;-73
2023/06/01 10:19:22;;;;;;;7.22;6.03;;;;;;;28.41;35.65;95041.41;5064916;28;20036;-73
2023/06/01 10:21:47;;;;;;;7.72;6.20;;;;;;;28.25;35.88;95038.44;5064117;28;20057;-73
2023/06/01 10:24:15;;;;;;;7.78;5.57;;;;;;;28.31;35.32;95049.59;5064965;28;20115;-74
2023/06/01 10:26:56;;;;;;;7.25;5.80;;;;;;;28.48;35.89;95046.38;5064409;28;20036;-74
2023/06/01 10:29:23;;;;;;;7.88;6.20;;;;;;;28.09;36.65;95041.66;5064875;28;20043;-72
2023/06/01 10:31:48;;;;;;;9.65;6.60;;;;;;;28.02;35.77;95041.06;5063863;28;20047;-73
2023/06/01 10:34:14;;;;;;;7.57;6.32;;;;;;;27.87;35.77;95048.59;5064530;28;20414;-73
2023/06/01 10:36:51;;;;;;;9.02;5.85;;;;;;;27.85;35.63;95042.75;5065950;28;20017;-75
2023/06/01 10:39:27;;;;;;;5.25;4.65;;;;;;;27.83;32.36;95048.22;5065713;28;20028;-73
2023/06/01 10:41:56;;;;;;;6.82;4.40;;;;;;;26.76;32.24;95049.66;5065858;28;20032;-73
2023/06/01 10:44:40;;;;;;;5.22;3.67;;;;;;;26.70;31.98;95041.28;5065066;28;20047;-73
2023/06/01 10:47:12;;;;;;;5.35;4.18;;;;;;;26.33;31.67;95031.69;5065486;28;20604;-73
2023/06/01 10:49:46;;;;;;;5.78;4.10;;;;;;;26.18;32.18;95046.28;5065750;28;20033;-73
2023/06/01 10:52:27;;;;;;;4.57;3.83;;;;;;;26.02;32.62;95027.59;5064864;28;20510;-73
2023/06/01 10:54:55;;;;;;;6.57;4.57;;;;;;;26.09;32.61;95027.00;5065198;28;20100;-74
2023/06/01 10:57:24;;;;;;;6.45;4.60;;;;;;;25.53;34.60;95019.41;5063651;28;20125;-74
2023/06/01 11:00:31;;;;;;;6.97;5.05;;;;;;;25.24;36.14;95021.09;5064649;28;20150;-74
2023/06/01 11:02:59;;;;;;;7.63;5.13;;;;;;;25.20;36.66;95017.03;5064305;28;20093;-74
2023/06/01 11:05:51;;;;;;;6.07;4.75;;;;;;;25.06;37.70;95008.53;5064088;28;20048;-74
2023/06/01 11:08:20;;;;;;;8.77;5.38;;;;;;;25.17;38.08;95004.78;5064077;28;20047;-73
2023/06/01 11:10:54;;;;;;;9.02;5.45;;;;;;;25.34;38.34;95001.75;5065668;28;20070;-72
2023/06/01 11:13:21;;;;;;;10.48;5.72;;;;;;;25.50;38.05;95005.63;5064677;28;20114;-72
2023/06/01 11:16:21;;;;;;;8.88;6.28;;;;;;;25.64;38.01;95004.41;5065242;28;20407;-73
2023/06/01 11:19:00;;;;;;;7.95;5.45;;;;;;;25.81;37.98;94996.47;5064956;28;20048;-72
2023/06/01 11:21:30;;;;;;;7.85;5.30;;;;;;;26.01;37.30;94995.09;5064201;28;20029;-74
2023/06/01 11:23:59;;;;;;;7.43;6.07;;;;;;;25.88;37.36;94990.19;5063474;28;20032;-73
2023/06/01 11:26:31;;;;;;;10.40;5.60;;;;;;;26.07;35.97;94986.56;5063658;28;20036;-73